Time;durP1;ratioP1;P1;durP2;ratioP2;P2;SDS_P1;SDS_P2;PMS_P1;PMS_P2;Temp;Humidity;BMP_temperature;BMP_pressure;BME280_temperature;BME280_humidity;BME280_pressure;Samples;Min_cycle;Max_cycle;Signal;HPM_P1;HPM_P2
2022/03/29 00:00:01;;;;;;;16.62;14.15;;;;;;;;;;736585;80;26433;-75
2022/03/29 00:03:19;;;;;;;19.65;13.95;;;;;;;;;;764679;77;26260;-76
2022/03/29 00:04:22;;;;;;;18.57;14.35;;;;;;;;;;755833;78;26731;-75
2022/03/29 00:05:27;;;;;;;17.60;14.70;;;;;;;;;;755456;78;26260;-75
2022/03/29 00:06:32;;;;;;;19.80;14.28;;;;;;;;;;755461;78;26320;-75
2022/03/29 00:07:35;;;;;;;18.40;15.00;;;;;;;;;;755509;78;26785;-75
2022/03/29 00:08:38;;;;;;;19.07;14.38;;;;;;;;;;755517;78;26736;-76
2022/03/29 00:09:44;;;;;;;18.07;14.60;;;;;;;;;;755429;78;26248;-75
2022/03/29 00:13:20;;;;;;;17.60;14.23;;;;;;;;;;755788;78;26179;-75
2022/03/29 00:14:23;;;;;;;19.75;14.68;;;;;;;;;;770826;77;26707;-74
2022/03/29 00:15:28;;;;;;;18.17;14.13;;;;;;;;;;755289;78;26261;-74
2022/03/29 00:16:50;;;;;;;18.00;14.00;;;;;;;;;;725537;76;26405;-76
2022/03/29 00:17:54;;;;;;;18.37;14.40;;;;;;;;;;755772;78;26252;-74
2022/03/29 00:18:57;;;;;;;16.48;14.25;;;;;;;;;;770932;76;26343;-76
2022/03/29 00:19:59;;;;;;;15.08;13.48;;;;;;;;;;753331;78;26678;-76
2022/03/29 00:23:18;;;;;;;18.07;14.03;;;;;;;;;;748359;79;26732;-76
2022/03/29 00:24:23;;;;;;;17.35;14.00;;;;;;;;;;748271;79;26332;-75
2022/03/29 00:25:28;;;;;;;15.50;13.85;;;;;;;;;;761851;78;26265;-76
2022/03/29 00:33:32;;;;;;;16.30;13.18;;;;;;;;;;796402;74;26167;-73
2022/03/29 00:34:40;;;;;;;17.77;14.30;;;;;;;;;;796314;74;26244;-75
2022/03/29 00:35:42;;;;;;;15.38;13.53;;;;;;;;;;796430;74;26239;-74
2022/03/29 00:36:47;;;;;;;17.37;14.60;;;;;;;;;;796310;74;26312;-75
2022/03/29 00:37:51;;;;;;;16.75;13.08;;;;;;;;;;796279;74;26297;-75
2022/03/29 00:38:55;;;;;;;18.10;13.95;;;;;;;;;;795409;74;26759;-75
2022/03/29 00:45:37;;;;;;;17.73;14.28;;;;;;;;;;747636;79;26607;-75
2022/03/29 00:46:40;;;;;;;16.15;13.38;;;;;;;;;;761872;77;26256;-75
2022/03/29 00:47:43;;;;;;;21.95;14.73;;;;;;;;;;761823;78;26242;-74
2022/03/29 00:48:49;;;;;;;15.75;13.00;;;;;;;;;;761843;78;26262;-75
2022/03/29 00:49:52;;;;;;;14.98;13.28;;;;;;;;;;761836;78;26256;-75
2022/03/29 00:53:09;;;;;;;14.23;12.73;;;;;;;;;;761906;78;26639;-74
2022/03/29 00:54:12;;;;;;;16.87;13.28;;;;;;;;;;761856;78;26318;-76
2022/03/29 00:55:17;;;;;;;15.90;12.82;;;;;;;;;;761900;78;26264;-75
2022/03/29 00:56:24;;;;;;;16.32;13.20;;;;;;;;;;761841;77;26317;-75
2022/03/29 00:57:29;;;;;;;15.72;13.45;;;;;;;;;;761798;78;26272;-75
2022/03/29 00:58:34;;;;;;;16.73;13.30;;;;;;;;;;761869;78;26306;-74
2022/03/29 00:59:38;;;;;;;15.03;13.05;;;;;;;;;;761808;78;26312;-75
2022/03/29 01:04:06;;;;;;;15.32;11.95;;;;;;;;;;789641;75;26289;-74
2022/03/29 01:05:11;;;;;;;18.30;13.25;;;;;;;;;;789727;75;26297;-77
2022/03/29 01:06:16;;;;;;;15.43;13.20;;;;;;;;;;789643;75;26231;-74
2022/03/29 01:07:18;;;;;;;14.25;12.65;;;;;;;;;;789758;75;26217;-74
2022/03/29 01:08:21;;;;;;;18.23;13.50;;;;;;;;;;788928;75;26672;-74
2022/03/29 01:09:27;;;;;;;17.17;13.75;;;;;;;;;;788202;75;26684;-75
2022/03/29 01:12:55;;;;;;;16.42;13.95;;;;;;;;;;808073;73;26267;-75
2022/03/29 01:17:41;;;;;;;17.60;13.38;;;;;;;;;;808180;73;26604;-74
2022/03/29 01:18:44;;;;;;;16.20;13.65;;;;;;;;;;790950;75;26253;-75
2022/03/29 01:21:50;;;;;;;18.45;13.25;;;;;;;;;;791652;75;26605;-76
2022/03/29 01:22:54;;;;;;;15.85;13.13;;;;;;;;;;762582;78;26756;-75
2022/03/29 01:23:58;;;;;;;15.18;12.98;;;;;;;;;;763027;78;26252;-74
2022/03/29 01:25:01;;;;;;;14.47;12.58;;;;;;;;;;762787;78;26252;-75
2022/03/29 01:26:04;;;;;;;13.70;12.30;;;;;;;;;;762945;78;26254;-75
2022/03/29 01:27:10;;;;;;;15.78;13.32;;;;;;;;;;763057;78;26255;-75
2022/03/29 01:28:14;;;;;;;17.90;12.80;;;;;;;;;;762880;78;26349;-77
2022/03/29 01:29:17;;;;;;;16.10;14.07;;;;;;;;;;762555;78;26322;-75
2022/03/29 01:32:23;;;;;;;15.32;13.55;;;;;;;;;;763285;78;26196;-75
2022/03/29 01:33:28;;;;;;;15.10;12.95;;;;;;;;;;765349;77;26254;-74
2022/03/29 01:34:31;;;;;;;15.53;13.80;;;;;;;;;;749572;79;26275;-75
2022/03/29 01:35:37;;;;;;;15.78;12.90;;;;;;;;;;764715;77;26301;-75
2022/03/29 01:36:40;;;;;;;14.53;13.03;;;;;;;;;;764997;77;26239;-75
2022/03/29 01:37:43;;;;;;;17.30;13.38;;;;;;;;;;764808;77;26308;-75
2022/03/29 01:38:46;;;;;;;16.85;13.90;;;;;;;;;;765209;77;26235;-75
2022/03/29 01:43:18;;;;;;;16.25;13.10;;;;;;;;;;748426;79;26197;-75
2022/03/29 01:44:23;;;;;;;16.50;13.43;;;;;;;;;;748303;79;26261;-75
2022/03/29 01:45:30;;;;;;;15.32;12.37;;;;;;;;;;748270;79;26254;-75
2022/03/29 01:46:36;;;;;;;16.57;12.78;;;;;;;;;;748241;79;26703;-75
2022/03/29 01:47:40;;;;;;;16.95;12.88;;;;;;;;;;748330;79;26255;-75
2022/03/29 01:48:45;;;;;;;17.73;13.18;;;;;;;;;;748315;79;26728;-75
2022/03/29 01:53:31;;;;;;;18.23;12.63;;;;;;;;;;749013;79;26191;-75
2022/03/29 01:54:34;;;;;;;14.25;12.75;;;;;;;;;;767993;77;26743;-75
2022/03/29 01:55:37;;;;;;;14.13;12.60;;;;;;;;;;748808;79;26329;-74
2022/03/29 01:56:39;;;;;;;16.57;13.03;;;;;;;;;;767975;77;26254;-74
2022/03/29 01:57:43;;;;;;;17.55;12.53;;;;;;;;;;748845;79;26269;-75
2022/03/29 01:58:46;;;;;;;14.87;12.90;;;;;;;;;;767923;77;26269;-75
2022/03/29 02:08:45;;;;;;;16.12;13.35;;;;;;;;;;763860;78;26187;-75
2022/03/29 02:13:30;;;;;;;16.57;13.05;;;;;;;;;;768806;77;26642;-76
2022/03/29 02:14:38;;;;;;;16.42;13.40;;;;;;;;;;768532;77;26262;-76
2022/03/29 02:15:42;;;;;;;14.70;12.85;;;;;;;;;;769128;77;26251;-75
2022/03/29 02:16:45;;;;;;;16.80;13.95;;;;;;;;;;770046;77;26251;-75
2022/03/29 02:17:48;;;;;;;15.83;12.93;;;;;;;;;;770032;77;26355;-75
2022/03/29 02:19:00;;;;;;;16.23;14.40;;;;;;;;;;770071;77;26222;-75
2022/03/29 02:22:19;;;;;;;15.72;12.98;;;;;;;;;;769006;77;26197;-75
2022/03/29 02:23:22;;;;;;;19.32;13.90;;;;;;;;;;781096;76;26240;-75
2022/03/29 02:24:26;;;;;;;15.78;13.53;;;;;;;;;;781064;76;26248;-75
2022/03/29 02:25:30;;;;;;;16.42;13.25;;;;;;;;;;787478;75;26238;-75
2022/03/29 02:26:33;;;;;;;16.35;12.93;;;;;;;;;;787425;75;26230;-75
2022/03/29 02:27:36;;;;;;;15.68;13.10;;;;;;;;;;787365;75;26300;-75
2022/03/29 02:28:39;;;;;;;14.60;12.73;;;;;;;;;;787335;75;26238;-75
2022/03/29 02:33:47;;;;;;;15.03;13.13;;;;;;;;;;740068;80;26275;-76
2022/03/29 02:34:51;;;;;;;17.42;13.48;;;;;;;;;;749546;79;26406;-76
2022/03/29 02:35:58;;;;;;;15.88;13.58;;;;;;;;;;749826;79;26271;-77
2022/03/29 02:37:01;;;;;;;20.08;14.38;;;;;;;;;;749639;79;26267;-76
2022/03/29 02:38:07;;;;;;;15.63;12.78;;;;;;;;;;749541;79;26760;-75
2022/03/29 02:41:34;;;;;;;17.62;13.38;;;;;;;;;;790073;75;26211;-76
2022/03/29 02:42:41;;;;;;;17.57;13.20;;;;;;;;;;789846;75;26236;-75
2022/03/29 02:43:48;;;;;;;15.95;13.80;;;;;;;;;;789804;75;26256;-76
2022/03/29 02:44:50;;;;;;;15.70;13.93;;;;;;;;;;790615;75;26233;-74
2022/03/29 02:45:55;;;;;;;19.55;14.15;;;;;;;;;;791916;75;26233;-76
2022/03/29 02:46:57;;;;;;;23.45;14.63;;;;;;;;;;766978;77;26236;-75
2022/03/29 02:48:02;;;;;;;16.23;14.50;;;;;;;;;;769671;77;26763;-76
2022/03/29 02:54:35;;;;;;;15.63;13.13;;;;;;;;;;741554;80;26234;-75
2022/03/29 02:55:38;;;;;;;17.05;13.35;;;;;;;;;;741462;80;26359;-74
2022/03/29 02:56:41;;;;;;;16.95;12.82;;;;;;;;;;741565;80;26378;-76
2022/03/29 02:57:46;;;;;;;17.77;13.30;;;;;;;;;;741507;80;26289;-76
2022/03/29 02:58:49;;;;;;;18.07;14.05;;;;;;;;;;741492;80;26760;-75
2022/03/29 03:02:07;;;;;;;22.42;14.13;;;;;;;;;;739921;80;26277;-75
2022/03/29 03:03:12;;;;;;;18.52;13.28;;;;;;;;;;727392;81;26802;-76
2022/03/29 03:04:15;;;;;;;18.75;13.88;;;;;;;;;;729264;80;26332;-74
2022/03/29 03:05:20;;;;;;;19.50;14.95;;;;;;;;;;739968;77;26274;-75
2022/03/29 03:06:34;;;;;;;18.77;14.30;;;;;;;;;;773981;76;26241;-76
2022/03/29 03:07:39;;;;;;;16.20;13.70;;;;;;;;;;777727;76;26246;-76
2022/03/29 03:08:42;;;;;;;16.85;14.13;;;;;;;;;;773028;76;26304;-75
2022/03/29 03:13:14;;;;;;;18.10;13.58;;;;;;;;;;764795;77;26181;-76
2022/03/29 03:14:19;;;;;;;16.85;14.50;;;;;;;;;;764663;77;26271;-75
2022/03/29 03:15:24;;;;;;;16.27;13.25;;;;;;;;;;764888;77;26256;-74
2022/03/29 03:16:44;;;;;;;15.55;13.40;;;;;;;;;;765064;77;26255;-74
2022/03/29 03:17:53;;;;;;;14.85;13.15;;;;;;;;;;764632;77;26275;-73
2022/03/29 03:18:56;;;;;;;15.85;14.15;;;;;;;;;;764734;77;26262;-76
2022/03/29 03:22:00;;;;;;;16.48;13.45;;;;;;;;;;725377;82;26280;-75
2022/03/29 03:23:05;;;;;;;18.75;14.90;;;;;;;;;;735848;80;26285;-76
2022/03/29 03:24:13;;;;;;;15.15;13.43;;;;;;;;;;737735;80;26284;-78
2022/03/29 03:25:16;;;;;;;17.00;13.70;;;;;;;;;;737712;80;26363;-76
2022/03/29 03:26:22;;;;;;;18.07;14.53;;;;;;;;;;737540;80;26282;-75
2022/03/29 03:27:25;;;;;;;18.25;14.30;;;;;;;;;;737510;80;26340;-76
2022/03/29 03:28:30;;;;;;;16.52;14.55;;;;;;;;;;725504;81;26810;-75
2022/03/29 03:31:54;;;;;;;18.65;13.75;;;;;;;;;;725698;82;26230;-75
2022/03/29 03:32:57;;;;;;;16.62;14.13;;;;;;;;;;753293;78;26261;-75
2022/03/29 03:34:03;;;;;;;19.27;15.13;;;;;;;;;;742710;80;26351;-75
2022/03/29 03:35:06;;;;;;;19.40;14.47;;;;;;;;;;734426;80;26726;-77
2022/03/29 03:36:10;;;;;;;23.55;13.95;;;;;;;;;;744906;79;26264;-75
2022/03/29 03:43:58;;;;;;;32.40;24.82;;;;;;;;;;748015;79;26208;-74
2022/03/29 03:45:03;;;;;;;24.18;20.10;;;;;;;;;;747854;79;26719;-74
2022/03/29 03:46:10;;;;;;;18.52;15.75;;;;;;;;;;747447;79;26259;-75
2022/03/29 03:47:14;;;;;;;16.77;14.95;;;;;;;;;;747735;79;26260;-75
2022/03/29 03:48:18;;;;;;;18.30;14.43;;;;;;;;;;746962;79;26765;-77
2022/03/29 03:53:03;;;;;;;14.80;12.75;;;;;;;;;;756928;78;26230;-74
2022/03/29 03:54:07;;;;;;;16.12;12.73;;;;;;;;;;756849;78;26326;-73
2022/03/29 03:55:10;;;;;;;15.80;12.90;;;;;;;;;;756930;78;26263;-74
2022/03/29 03:56:13;;;;;;;16.60;12.65;;;;;;;;;;757453;78;26341;-75
2022/03/29 03:57:18;;;;;;;18.80;14.18;;;;;;;;;;757372;78;26321;-75
2022/03/29 03:58:22;;;;;;;20.60;12.30;;;;;;;;;;757030;78;26345;-75
2022/03/29 04:01:49;;;;;;;22.95;15.60;;;;;;;;;;757130;78;26192;-76
2022/03/29 04:02:54;;;;;;;21.10;15.30;;;;;;;;;;745669;79;26684;-74
2022/03/29 04:04:00;;;;;;;18.95;15.18;;;;;;;;;;751437;79;26254;-78
2022/03/29 04:05:03;;;;;;;19.60;14.87;;;;;;;;;;751377;79;26727;-76
2022/03/29 04:06:08;;;;;;;16.35;13.80;;;;;;;;;;752772;79;26327;-76
2022/03/29 04:07:11;;;;;;;17.70;14.00;;;;;;;;;;751490;79;26317;-78
2022/03/29 04:08:16;;;;;;;16.52;14.45;;;;;;;;;;751492;79;26726;-75
2022/03/29 04:13:00;;;;;;;17.17;13.50;;;;;;;;;;776903;76;26743;-75
2022/03/29 04:18:01;;;;;;;16.45;13.88;;;;;;;;;;779175;76;26210;-71
2022/03/29 04:22:59;;;;;;;24.65;18.45;;;;;;;;;;779115;76;26160;-71
2022/03/29 04:31:40;;;;;;;21.12;14.63;;;;;;;;;;782435;76;26162;-71
2022/03/29 04:32:45;;;;;;;19.52;15.32;;;;;;;;;;782995;76;26670;-71
2022/03/29 04:33:48;;;;;;;19.15;14.75;;;;;;;;;;783492;76;26345;-71
2022/03/29 04:34:57;;;;;;;18.80;13.60;;;;;;;;;;783407;76;24580;-76
2022/03/29 04:36:00;;;;;;;20.43;14.20;;;;;;;;;;783180;76;26233;-73
2022/03/29 04:37:07;;;;;;;18.80;14.58;;;;;;;;;;783023;76;26282;-73
2022/03/29 04:38:12;;;;;;;17.17;14.28;;;;;;;;;;782998;76;26653;-72
2022/03/29 04:41:15;;;;;;;19.87;14.90;;;;;;;;;;783107;76;26224;-73
2022/03/29 04:42:20;;;;;;;22.10;16.37;;;;;;;;;;783260;76;26236;-71
2022/03/29 04:43:25;;;;;;;20.77;15.05;;;;;;;;;;783322;76;26330;-71
2022/03/29 04:44:29;;;;;;;29.02;15.85;;;;;;;;;;782499;76;26313;-71
2022/03/29 04:45:33;;;;;;;18.48;14.98;;;;;;;;;;782262;76;26236;-71
2022/03/29 04:46:36;;;;;;;20.97;17.27;;;;;;;;;;782263;76;26224;-70
2022/03/29 04:47:47;;;;;;;26.07;23.32;;;;;;;;;;782211;76;26221;-70
2022/03/29 04:52:20;;;;;;;21.07;17.12;;;;;;;;;;796068;74;26656;-73
2022/03/29 04:53:23;;;;;;;22.73;16.55;;;;;;;;;;796011;74;26226;-72
2022/03/29 04:54:27;;;;;;;28.30;17.70;;;;;;;;;;795784;74;26305;-72
2022/03/29 04:55:30;;;;;;;23.80;16.25;;;;;;;;;;795832;74;26754;-71
2022/03/29 04:56:37;;;;;;;24.70;18.07;;;;;;;;;;795900;74;26276;-70
2022/03/29 04:57:55;;;;;;;25.43;17.05;;;;;;;;;;795881;74;26667;-71
2022/03/29 05:02:26;;;;;;;29.02;16.87;;;;;;;;;;776789;76;26244;-71
2022/03/29 05:03:31;;;;;;;22.48;16.62;;;;;;;;;;776581;76;26262;-71
2022/03/29 05:04:34;;;;;;;25.05;17.82;;;;;;;;;;776689;76;26327;-72
2022/03/29 05:05:37;;;;;;;29.77;20.50;;;;;;;;;;777038;76;26234;-71
2022/03/29 05:06:41;;;;;;;40.43;27.98;;;;;;;;;;776846;76;26250;-71
2022/03/29 05:07:45;;;;;;;42.03;28.35;;;;;;;;;;777277;76;26253;-73
2022/03/29 05:14:21;;;;;;;26.90;18.10;;;;;;;;;;796192;74;26580;-71
2022/03/29 05:15:25;;;;;;;24.52;17.82;;;;;;;;;;795812;74;26292;-73
2022/03/29 05:16:28;;;;;;;25.70;17.25;;;;;;;;;;795757;74;26340;-72
2022/03/29 05:17:34;;;;;;;20.08;16.50;;;;;;;;;;795836;74;26278;-72
2022/03/29 05:22:17;;;;;;;20.23;15.53;;;;;;;;;;795853;74;26143;-72
2022/03/29 05:23:22;;;;;;;18.80;15.05;;;;;;;;;;795761;74;26276;-70
2022/03/29 05:24:26;;;;;;;25.57;16.73;;;;;;;;;;795907;74;26226;-71
2022/03/29 05:25:29;;;;;;;19.30;17.20;;;;;;;;;;795826;74;26389;-71
2022/03/29 05:26:32;;;;;;;22.67;18.27;;;;;;;;;;795782;74;26222;-71
2022/03/29 05:27:35;;;;;;;23.77;19.02;;;;;;;;;;795920;74;26226;-70
2022/03/29 05:32:21;;;;;;;23.25;17.90;;;;;;;;;;776691;76;26205;-73
2022/03/29 05:33:30;;;;;;;24.27;18.80;;;;;;;;;;770206;76;26722;-71
2022/03/29 05:34:40;;;;;;;26.48;20.08;;;;;;;;;;773568;76;26697;-71
2022/03/29 05:35:43;;;;;;;31.02;20.65;;;;;;;;;;773039;76;26333;-71
2022/03/29 05:36:54;;;;;;;25.82;19.48;;;;;;;;;;777081;76;24290;-71
2022/03/29 05:41:43;;;;;;;28.47;21.93;;;;;;;;;;776904;76;26614;-72
2022/03/29 05:42:47;;;;;;;33.23;23.65;;;;;;;;;;749000;79;26261;-71
2022/03/29 05:43:50;;;;;;;26.77;22.13;;;;;;;;;;749442;78;26278;-70
2022/03/29 05:44:54;;;;;;;26.37;22.37;;;;;;;;;;776584;76;26248;-72
2022/03/29 05:57:25;;;;;;;29.48;21.02;;;;;;;;;;763810;77;26207;-72
2022/03/29 06:02:40;;;;;;;25.88;21.62;;;;;;;;;;764219;77;26183;-71
2022/03/29 06:03:43;;;;;;;27.80;21.35;;;;;;;;;;763776;77;26697;-71
2022/03/29 06:04:47;;;;;;;30.92;21.25;;;;;;;;;;763583;77;26321;-70
2022/03/29 06:05:55;;;;;;;31.33;21.40;;;;;;;;;;763455;77;26740;-71
2022/03/29 06:06:58;;;;;;;30.17;21.60;;;;;;;;;;763598;77;26266;-70
2022/03/29 06:08:02;;;;;;;27.77;20.65;;;;;;;;;;763701;77;26342;-72
2022/03/29 06:11:21;;;;;;;27.40;21.02;;;;;;;;;;764156;77;26198;-72
2022/03/29 06:12:24;;;;;;;29.35;21.87;;;;;;;;;;763858;77;26743;-74
2022/03/29 06:15:42;;;;;;;31.07;21.75;;;;;;;;;;763886;77;26211;-74
2022/03/29 06:16:46;;;;;;;25.52;20.32;;;;;;;;;;792246;75;26249;-71
2022/03/29 06:17:49;;;;;;;24.90;21.30;;;;;;;;;;792311;75;26242;-72
2022/03/29 06:21:27;;;;;;;25.00;19.85;;;;;;;;;;738139;80;26238;-72
2022/03/29 06:22:31;;;;;;;30.12;20.40;;;;;;;;;;739992;80;26321;-72
2022/03/29 06:23:35;;;;;;;29.92;21.20;;;;;;;;;;739356;80;26273;-72
2022/03/29 06:24:39;;;;;;;26.10;21.52;;;;;;;;;;751930;76;26277;-73
2022/03/29 06:25:46;;;;;;;31.62;21.85;;;;;;;;;;771540;76;26235;-73
2022/03/29 06:26:53;;;;;;;25.02;21.40;;;;;;;;;;735308;80;26258;-70
2022/03/29 06:31:24;;;;;;;31.42;20.12;;;;;;;;;;751921;78;26173;-72
2022/03/29 06:32:32;;;;;;;35.73;21.42;;;;;;;;;;764513;77;26226;-71
2022/03/29 06:33:37;;;;;;;30.32;21.90;;;;;;;;;;757252;78;26323;-72
2022/03/29 06:34:43;;;;;;;29.27;21.57;;;;;;;;;;753237;78;26247;-72
2022/03/29 06:35:48;;;;;;;26.70;21.25;;;;;;;;;;756006;78;26310;-71
2022/03/29 06:36:53;;;;;;;27.40;21.17;;;;;;;;;;755880;78;26792;-73
2022/03/29 06:41:26;;;;;;;22.40;18.50;;;;;;;;;;773863;76;26247;-74
2022/03/29 06:42:32;;;;;;;24.82;20.02;;;;;;;;;;773671;76;26243;-74
2022/03/29 06:43:36;;;;;;;26.80;19.73;;;;;;;;;;773569;76;26252;-70
2022/03/29 06:44:42;;;;;;;23.40;20.10;;;;;;;;;;773572;76;26249;-69
2022/03/29 06:45:45;;;;;;;29.02;20.48;;;;;;;;;;773569;76;26775;-70
2022/03/29 06:54:52;;;;;;;21.25;17.00;;;;;;;;;;773983;76;26197;-70
2022/03/29 06:55:56;;;;;;;25.00;18.42;;;;;;;;;;773514;76;26322;-71
2022/03/29 06:57:06;;;;;;;21.77;17.75;;;;;;;;;;773528;76;26766;-70
2022/03/29 07:00:25;;;;;;;22.02;16.93;;;;;;;;;;774227;76;26614;-71
2022/03/29 07:01:28;;;;;;;20.45;17.92;;;;;;;;;;773666;76;26299;-73
2022/03/29 07:02:34;;;;;;;22.85;18.20;;;;;;;;;;773918;76;26251;-70
2022/03/29 07:03:39;;;;;;;21.45;17.20;;;;;;;;;;774024;76;26354;-70
2022/03/29 07:04:43;;;;;;;21.97;17.57;;;;;;;;;;773611;76;26314;-71
2022/03/29 07:05:48;;;;;;;22.10;17.30;;;;;;;;;;773605;76;26291;-69
2022/03/29 07:07:04;;;;;;;22.00;16.20;;;;;;;;;;773572;76;26253;-72
2022/03/29 07:11:50;;;;;;;24.77;17.70;;;;;;;;;;760744;78;26295;-71
2022/03/29 07:12:57;;;;;;;21.00;18.27;;;;;;;;;;760714;78;26747;-72
2022/03/29 07:14:06;;;;;;;25.82;17.30;;;;;;;;;;760523;78;26271;-69
2022/03/29 07:15:09;;;;;;;21.25;17.20;;;;;;;;;;760480;78;26263;-73
2022/03/29 07:16:15;;;;;;;20.82;16.67;;;;;;;;;;760642;78;26263;-72
2022/03/29 07:17:22;;;;;;;19.67;17.57;;;;;;;;;;736296;80;26383;-73
2022/03/29 07:21:02;;;;;;;21.95;18.07;;;;;;;;;;760994;78;26215;-70
2022/03/29 07:22:12;;;;;;;21.97;19.05;;;;;;;;;;773811;76;26682;-70
2022/03/29 07:23:14;;;;;;;19.55;17.25;;;;;;;;;;771616;76;26232;-72
2022/03/29 07:24:20;;;;;;;21.05;18.37;;;;;;;;;;775047;76;26232;-71
2022/03/29 07:25:27;;;;;;;19.87;16.95;;;;;;;;;;774799;76;26343;-72
2022/03/29 07:26:30;;;;;;;23.02;17.35;;;;;;;;;;774307;76;26662;-70
2022/03/29 07:31:16;;;;;;;18.07;15.45;;;;;;;;;;760805;78;26279;-71
2022/03/29 07:32:21;;;;;;;18.23;16.12;;;;;;;;;;760692;78;26680;-70
2022/03/29 07:33:25;;;;;;;16.37;14.68;;;;;;;;;;760793;78;26726;-71
2022/03/29 07:41:38;;;;;;;17.92;15.08;;;;;;;;;;760716;78;26180;-69
2022/03/29 07:42:42;;;;;;;16.48;14.87;;;;;;;;;;760695;78;26254;-71
2022/03/29 07:43:47;;;;;;;19.50;15.43;;;;;;;;;;760730;78;26258;-71
2022/03/29 07:44:51;;;;;;;16.57;14.03;;;;;;;;;;761657;78;26388;-71
2022/03/29 07:45:55;;;;;;;20.77;15.00;;;;;;;;;;761629;77;26309;-71
2022/03/29 07:47:07;;;;;;;21.10;15.45;;;;;;;;;;759573;78;26751;-70
2022/03/29 07:50:19;;;;;;;21.40;16.25;;;;;;;;;;760916;78;26656;-70
2022/03/29 07:51:24;;;;;;;19.55;15.30;;;;;;;;;;758476;76;26721;-70
2022/03/29 07:52:27;;;;;;;21.10;14.80;;;;;;;;;;760935;78;26258;-71
2022/03/29 07:53:30;;;;;;;17.10;13.98;;;;;;;;;;760953;78;26724;-72
2022/03/29 07:54:33;;;;;;;17.95;13.15;;;;;;;;;;761017;78;26704;-71
2022/03/29 07:55:39;;;;;;;15.95;11.68;;;;;;;;;;760895;78;26731;-70
2022/03/29 07:56:48;;;;;;;14.03;11.33;;;;;;;;;;756673;78;26685;-69
2022/03/29 08:01:30;;;;;;;13.30;10.90;;;;;;;;;;758111;78;26257;-71
2022/03/29 08:02:33;;;;;;;11.22;10.05;;;;;;;;;;758050;78;26722;-70
2022/03/29 08:03:37;;;;;;;11.55;10.35;;;;;;;;;;757965;78;26256;-71
2022/03/29 08:04:43;;;;;;;15.75;10.43;;;;;;;;;;758082;78;26683;-69
2022/03/29 08:05:47;;;;;;;16.87;12.63;;;;;;;;;;725495;82;26426;-69
2022/03/29 08:06:51;;;;;;;19.77;12.90;;;;;;;;;;743990;80;26334;-68
2022/03/29 08:11:52;;;;;;;18.82;12.10;;;;;;;;;;788414;75;26358;-69
2022/03/29 08:16:48;;;;;;;13.93;10.38;;;;;;;;;;773589;77;26251;-70
2022/03/29 08:19:38;;;;;;;13.25;9.05;;;;;;;;;;783732;75;26201;-72
2022/03/29 08:20:41;;;;;;;13.15;8.70;;;;;;;;;;783654;75;26294;-72
2022/03/29 08:21:49;;;;;;;13.30;8.63;;;;;;;;;;772497;77;26320;-71
2022/03/29 08:22:56;;;;;;;16.12;9.60;;;;;;;;;;774025;75;26303;-70
2022/03/29 08:31:15;;;;;;;14.87;10.15;;;;;;;;;;769691;77;26188;-69
2022/03/29 08:32:19;;;;;;;16.30;9.35;;;;;;;;;;769629;77;26688;-68
2022/03/29 08:33:22;;;;;;;13.20;9.47;;;;;;;;;;769648;77;26254;-68
2022/03/29 08:34:26;;;;;;;12.47;9.70;;;;;;;;;;769602;77;26516;-68
2022/03/29 08:35:33;;;;;;;14.20;9.30;;;;;;;;;;769602;77;26608;-67
2022/03/29 08:36:38;;;;;;;11.17;9.90;;;;;;;;;;769599;77;26897;-68
2022/03/29 08:41:13;;;;;;;13.40;9.73;;;;;;;;;;781553;76;26690;-75
2022/03/29 08:42:18;;;;;;;11.33;9.90;;;;;;;;;;781241;76;26574;-71
2022/03/29 08:43:22;;;;;;;12.97;9.33;;;;;;;;;;780123;76;26459;-72
2022/03/29 08:44:27;;;;;;;11.43;10.17;;;;;;;;;;780121;76;26314;-71
2022/03/29 08:45:33;;;;;;;14.20;10.23;;;;;;;;;;780424;76;26310;-68
2022/03/29 08:46:42;;;;;;;15.73;10.60;;;;;;;;;;767745;77;26425;-68
2022/03/29 08:49:55;;;;;;;10.23;9.23;;;;;;;;;;780254;76;26481;-69
2022/03/29 08:51:00;;;;;;;14.03;10.10;;;;;;;;;;774201;76;26491;-70
2022/03/29 08:52:07;;;;;;;11.80;9.53;;;;;;;;;;768884;76;26580;-68
2022/03/29 08:53:12;;;;;;;13.07;9.70;;;;;;;;;;774597;76;26375;-70
2022/03/29 08:54:16;;;;;;;11.20;10.07;;;;;;;;;;774569;76;26542;-69
2022/03/29 08:55:21;;;;;;;12.23;10.57;;;;;;;;;;774576;76;26840;-69
2022/03/29 08:56:25;;;;;;;10.47;9.37;;;;;;;;;;774429;76;26265;-70
2022/03/29 09:00:56;;;;;;;14.90;10.33;;;;;;;;;;787496;75;26587;-71
2022/03/29 09:02:01;;;;;;;14.23;10.10;;;;;;;;;;787344;75;26572;-68
2022/03/29 09:03:05;;;;;;;14.30;10.87;;;;;;;;;;786171;75;26921;-68
2022/03/29 09:04:10;;;;;;;12.50;9.87;;;;;;;;;;787443;75;26469;-70
2022/03/29 09:05:19;;;;;;;11.63;10.40;;;;;;;;;;787338;75;26968;-69
2022/03/29 09:06:32;;;;;;;14.43;9.50;;;;;;;;;;787612;75;26903;-70
2022/03/29 09:09:56;;;;;;;13.87;9.43;;;;;;;;;;783512;76;26821;-71
2022/03/29 09:11:04;;;;;;;15.40;9.50;;;;;;;;;;783362;76;26400;-70
2022/03/29 09:19:51;;;;;;;10.50;9.40;;;;;;;;;;774689;76;26472;-67
2022/03/29 09:21:11;;;;;;;17.00;9.00;;;;;;;;;;774612;76;26549;-71
2022/03/29 09:22:16;;;;;;;12.90;9.90;;;;;;;;;;774544;76;26771;-70
2022/03/29 09:23:21;;;;;;;13.73;9.53;;;;;;;;;;773831;76;26500;-70
2022/03/29 09:24:25;;;;;;;13.50;9.40;;;;;;;;;;774656;76;26858;-71
2022/03/29 09:25:35;;;;;;;14.57;10.07;;;;;;;;;;774636;76;26480;-70
2022/03/29 09:26:39;;;;;;;10.67;9.57;;;;;;;;;;774582;76;26548;-69
2022/03/29 09:29:42;;;;;;;12.27;9.07;;;;;;;;;;787515;75;26378;-70
2022/03/29 09:30:49;;;;;;;12.90;9.03;;;;;;;;;;787405;75;26500;-71
2022/03/29 09:32:11;;;;;;;15.40;8.37;;;;;;;;;;787378;75;27015;-71
2022/03/29 09:33:17;;;;;;;11.47;8.50;;;;;;;;;;787474;75;26537;-70
2022/03/29 09:34:22;;;;;;;14.77;10.73;;;;;;;;;;787369;75;26392;-70
2022/03/29 09:35:27;;;;;;;11.57;10.27;;;;;;;;;;787371;75;26988;-70
2022/03/29 09:38:51;;;;;;;12.33;11.03;;;;;;;;;;787645;75;27031;-70
2022/03/29 09:39:57;;;;;;;14.03;10.63;;;;;;;;;;787410;75;26525;-70
2022/03/29 09:41:05;;;;;;;11.53;10.33;;;;;;;;;;787477;75;26576;-70
2022/03/29 09:42:11;;;;;;;12.70;9.70;;;;;;;;;;787320;75;26607;-71
2022/03/29 09:43:27;;;;;;;11.03;9.30;;;;;;;;;;787447;75;26808;-72
2022/03/29 09:44:34;;;;;;;13.33;10.10;;;;;;;;;;787494;75;27009;-72
2022/03/29 09:45:40;;;;;;;11.63;10.27;;;;;;;;;;765260;75;26681;-72
2022/03/29 09:50:39;;;;;;;14.53;8.67;;;;;;;;;;767667;77;27151;-70
2022/03/29 09:51:48;;;;;;;9.23;7.93;;;;;;;;;;756633;78;27199;-70
2022/03/29 09:52:54;;;;;;;10.33;8.97;;;;;;;27.56;100.00;123554.15;778349;76;26783;-70
2022/03/29 09:54:01;;;;;;;12.10;8.20;;;;;;;;;;783547;75;26610;-71
2022/03/29 09:55:09;;;;;;;11.80;8.60;;;;;;;;;;784078;75;26682;-70
2022/03/29 09:56:15;;;;;;;10.13;8.90;;;;;;;;;;784223;75;26717;-70
2022/03/29 10:03:18;;;;;;;20.13;18.10;;;;;;;;;;759593;77;26681;-71
2022/03/29 10:04:29;;;;;;;28.07;25.17;;;;;;;;;;785392;75;27073;-72
2022/03/29 10:05:32;;;;;;;26.33;23.43;;;;;;;;;;786220;75;26691;-71
2022/03/29 10:10:06;;;;;;;16.43;14.73;;;;;;;;;;802368;73;27015;-72
2022/03/29 10:11:12;;;;;;;20.93;14.50;;;;;;;;;;801847;74;27013;-72
2022/03/29 10:12:16;;;;;;;15.80;12.77;;;;;;;;;;801810;74;26615;-71
2022/03/29 10:13:23;;;;;;;13.40;12.00;;;;;;;;;;801826;74;26579;-72
2022/03/29 10:14:27;;;;;;;13.00;11.60;;;;;;;;;;801838;74;26683;-72
2022/03/29 10:15:39;;;;;;;11.93;10.80;;;;;;;;;;801944;74;26997;-72
2022/03/29 10:20:15;;;;;;;14.73;10.67;;;;;;;;;;788076;75;26471;-71
2022/03/29 10:21:17;;;;;;;16.70;10.53;;;;;;;;;;787614;75;26507;-73
2022/03/29 10:22:24;;;;;;;13.27;10.47;;;;;;;;;;787521;75;27105;-72
2022/03/29 10:23:31;;;;;;;11.30;10.10;;;;;;;;;;787216;75;26680;-71
2022/03/29 10:24:38;;;;;;;11.43;10.20;;;;;;;;;;787010;75;26567;-71
2022/03/29 10:25:45;;;;;;;14.60;11.40;;;;;;;;;;785530;75;26518;-70
2022/03/29 10:28:54;;;;;;;12.37;10.50;;;;;;;;;;787675;75;26567;-73
2022/03/29 10:30:02;;;;;;;12.87;10.07;;;;;;;;;;777558;76;26601;-71
2022/03/29 10:31:09;;;;;;;12.70;10.47;;;;;;;;;;777423;76;26844;-70
2022/03/29 10:32:13;;;;;;;11.37;10.27;;;;;;;;;;771809;75;26691;-72
2022/03/29 10:33:20;;;;;;;14.47;9.77;;;;;;;;;;777113;76;27117;-70
2022/03/29 10:34:27;;;;;;;10.93;9.67;;;;;;;-146.52;100.00;123554.15;779314;76;26655;-69
2022/03/29 10:35:33;;;;;;;16.30;10.40;;;;;;;;;;779347;76;26650;-72
2022/03/29 10:40:09;;;;;;;14.07;8.90;;;;;;;;;;779309;76;26788;-70
2022/03/29 10:41:28;;;;;;;12.00;9.20;;;;;;;;;;779171;74;26756;-72
2022/03/29 10:42:47;;;;;;;12.00;9.40;;;;;;;;;;779441;76;26725;-70
2022/03/29 10:43:54;;;;;;;13.03;9.33;;;;;;;;;;779375;76;27140;-70
2022/03/29 10:45:05;;;;;;;10.80;9.00;;;;;;;;;;779397;76;26697;-69
2022/03/29 10:53:45;;;;;;;13.27;8.50;;;;;;;;;;779005;76;27029;-69
2022/03/29 10:54:43;;;;;;;9.27;8.30;;;;;;;;;;762499;77;26609;-71